Time;durP1;ratioP1;P1;durP2;ratioP2;P2;SDS_P1;SDS_P2;PMS_P1;PMS_P2;Temp;Humidity;BMP_temperature;BMP_pressure;BME280_temperature;BME280_humidity;BME280_pressure;Samples;Min_cycle;Max_cycle;Signal;HPM_P1;HPM_P2
2023/08/24 00:00:51;;;;;;;5.72;3.28;;;16.50;99.90;;;;;;5135705;27;20090;-74
2023/08/24 00:03:17;;;;;;;4.43;2.67;;;16.50;99.90;;;;;;5135952;27;20040;-75
2023/08/24 00:05:43;;;;;;;5.53;3.40;;;16.40;99.90;;;;;;5135821;27;20468;-76
2023/08/24 00:08:11;;;;;;;10.30;3.33;;;16.40;99.90;;;;;;5135922;27;20463;-75
2023/08/24 00:10:37;;;;;;;3.92;3.47;;;16.40;99.90;;;;;;5117270;27;20073;-75
2023/08/24 00:13:03;;;;;;;4.82;3.55;;;16.30;99.90;;;;;;5117535;27;20475;-75
2023/08/24 00:15:29;;;;;;;3.42;2.72;;;16.30;99.90;;;;;;5138167;27;20130;-75
2023/08/24 00:17:55;;;;;;;3.30;2.80;;;16.20;99.90;;;;;;5137904;27;20120;-75
2023/08/24 00:20:22;;;;;;;3.35;2.38;;;16.20;99.90;;;;;;5137937;27;20039;-75
2023/08/24 00:22:48;;;;;;;4.00;3.08;;;16.20;99.90;;;;;;5137656;27;20078;-74
2023/08/24 00:25:14;;;;;;;3.33;2.95;;;16.10;99.90;;;;;;5135173;27;20047;-75
2023/08/24 00:27:40;;;;;;;3.05;2.83;;;16.00;99.90;;;;;;5136216;27;20073;-75
2023/08/24 00:30:07;;;;;;;7.70;3.15;;;15.90;99.90;;;;;;5135754;27;20046;-76
2023/08/24 00:32:34;;;;;;;4.43;3.55;;;15.90;99.90;;;;;;5136025;27;20050;-75
2023/08/24 00:35:01;;;;;;;3.80;3.38;;;15.90;99.90;;;;;;5135764;27;20051;-75
2023/08/24 00:37:28;;;;;;;3.08;2.63;;;15.90;99.90;;;;;;5117241;27;20538;-75
2023/08/24 00:39:54;;;;;;;5.00;3.60;;;15.90;99.90;;;;;;5135828;27;20057;-76
2023/08/24 00:42:22;;;;;;;4.05;3.40;;;15.90;99.90;;;;;;5135400;27;20058;-75
2023/08/24 00:44:48;;;;;;;4.13;2.95;;;16.20;99.90;;;;;;5134871;27;20488;-75
2023/08/24 00:47:15;;;;;;;3.75;3.33;;;15.90;99.90;;;;;;5135006;27;20065;-75
2023/08/24 00:49:41;;;;;;;3.78;2.85;;;15.90;99.90;;;;;;5116899;27;20096;-75
2023/08/24 00:52:07;;;;;;;4.28;3.25;;;15.90;99.90;;;;;;5116683;27;20122;-75
2023/08/24 00:54:34;;;;;;;4.25;2.95;;;15.90;99.90;;;;;;5134784;27;20058;-75
2023/08/24 00:57:00;;;;;;;6.22;3.35;;;15.90;99.90;;;;;;5134899;27;20078;-75
2023/08/24 00:59:26;;;;;;;3.53;2.67;;;15.90;99.90;;;;;;5134868;27;20054;-75
2023/08/24 01:01:52;;;;;;;5.10;3.22;;;15.90;99.90;;;;;;5134717;27;20031;-75
2023/08/24 01:04:18;;;;;;;3.50;3.03;;;15.90;99.90;;;;;;5134725;27;20043;-75
2023/08/24 01:06:44;;;;;;;5.00;3.28;;;15.90;99.90;;;;;;5116832;27;20438;-75
2023/08/24 01:09:10;;;;;;;5.05;3.67;;;15.80;99.90;;;;;;5134636;27;20138;-75
2023/08/24 01:11:45;;;;;;;3.78;3.45;;;15.80;99.90;;;;;;5134542;27;20099;-75
2023/08/24 01:14:14;;;;;;;6.55;3.75;;;15.80;99.90;;;;;;5134974;27;20043;-75
2023/08/24 01:16:44;;;;;;;4.18;2.72;;;15.80;99.90;;;;;;5134766;27;20387;-75
2023/08/24 01:19:44;;;;;;;4.10;3.33;;;15.80;99.90;;;;;;5134970;27;20550;-75
2023/08/24 01:22:35;;;;;;;5.55;3.20;;;15.90;99.90;;;;;;5134388;27;20098;-76
2023/08/24 01:25:21;;;;;;;4.05;3.38;;;15.90;99.90;;;;;;5124931;27;20058;-75
2023/08/24 01:27:48;;;;;;;3.40;2.70;;;16.00;99.90;;;;;;5134195;27;20502;-75
2023/08/24 01:30:14;;;;;;;3.03;2.78;;;16.00;99.90;;;;;;5134076;27;20118;-75
2023/08/24 01:32:40;;;;;;;4.70;2.97;;;16.00;99.90;;;;;;5134116;27;20517;-75
2023/08/24 01:35:08;;;;;;;3.95;3.55;;;16.10;99.90;;;;;;5134132;27;20087;-75
2023/08/24 01:37:35;;;;;;;4.55;3.97;;;16.10;99.90;;;;;;5133810;27;20039;-75
2023/08/24 01:40:13;;;;;;;4.68;4.18;;;16.10;99.90;;;;;;5115712;27;20057;-75
2023/08/24 01:42:50;;;;;;;4.05;3.60;;;16.10;99.90;;;;;;5134592;27;20051;-75
2023/08/24 01:45:18;;;;;;;5.97;3.65;;;16.10;99.90;;;;;;5134665;27;20123;-75
2023/08/24 01:47:47;;;;;;;4.05;3.20;;;16.10;99.90;;;;;;5115963;27;20146;-75
2023/08/24 01:50:13;;;;;;;4.47;3.90;;;16.00;99.90;;;;;;5133835;27;20431;-75
2023/08/24 01:52:39;;;;;;;6.82;3.63;;;16.00;99.90;;;;;;5133738;27;20051;-75
2023/08/24 01:55:05;;;;;;;4.97;3.63;;;16.00;99.90;;;;;;5133764;27;20054;-75
2023/08/24 01:57:31;;;;;;;3.40;3.08;;;16.00;99.90;;;;;;5133730;27;20074;-75
2023/08/24 01:59:57;;;;;;;3.50;3.20;;;16.00;99.90;;;;;;5133699;27;20498;-75
2023/08/24 02:02:24;;;;;;;3.60;3.30;;;16.00;99.90;;;;;;5133593;27;20043;-75
2023/08/24 02:04:49;;;;;;;4.00;3.50;;;15.90;99.90;;;;;;5133510;27;20043;-75
2023/08/24 02:07:16;;;;;;;6.22;3.42;;;15.90;99.90;;;;;;5133650;27;20058;-75
2023/08/24 02:09:41;;;;;;;3.75;2.90;;;15.90;99.90;;;;;;5133444;27;20142;-75
2023/08/24 02:12:07;;;;;;;4.20;3.20;;;15.90;99.90;;;;;;5134126;27;20097;-75
2023/08/24 02:14:33;;;;;;;5.35;3.42;;;15.90;99.90;;;;;;5133462;27;20035;-75
2023/08/24 02:16:59;;;;;;;6.68;3.58;;;15.90;99.90;;;;;;5133608;28;20131;-75
2023/08/24 02:19:24;;;;;;;4.93;4.40;;;16.00;99.90;;;;;;5115324;28;20126;-74
2023/08/24 02:21:50;;;;;;;5.35;4.55;;;16.00;99.90;;;;;;5133744;28;20099;-75
2023/08/24 02:24:16;;;;;;;4.50;4.10;;;16.00;99.90;;;;;;5133313;28;20108;-75
2023/08/24 02:26:41;;;;;;;6.45;3.95;;;16.00;99.90;;;;;;5133463;28;20043;-75
2023/08/24 02:29:07;;;;;;;5.22;4.65;;;16.10;99.90;;;;;;5116002;28;20461;-75
2023/08/24 02:31:33;;;;;;;6.07;4.93;;;16.10;99.90;;;;;;5133767;28;20103;-75
2023/08/24 02:33:58;;;;;;;9.43;7.07;;;16.10;99.90;;;;;;5133582;28;20043;-74
2023/08/24 02:36:24;;;;;;;9.05;4.63;;;16.10;99.90;;;;;;5133606;28;20110;-75
2023/08/24 02:38:50;;;;;;;6.43;4.57;;;16.10;99.90;;;;;;5133235;28;20039;-75
2023/08/24 02:41:15;;;;;;;5.35;4.63;;;16.00;99.90;;;;;;5133273;28;20086;-75
2023/08/24 02:43:41;;;;;;;5.65;4.95;;;16.00;99.90;;;;;;5133219;28;20059;-75
2023/08/24 02:46:09;;;;;;;6.47;3.70;;;16.10;99.90;;;;;;5133241;28;20047;-75
2023/08/24 02:48:35;;;;;;;4.03;3.58;;;16.10;99.90;;;;;;5134078;27;20047;-76
2023/08/24 02:51:03;;;;;;;6.90;4.57;;;16.10;99.90;;;;;;5137289;27;20078;-75
2023/08/24 02:53:29;;;;;;;5.22;3.90;;;16.00;99.90;;;;;;5118665;27;20051;-75
2023/08/24 02:55:58;;;;;;;6.78;5.00;;;16.00;99.90;;;;;;5137448;27;20051;-76
2023/08/24 02:58:24;;;;;;;5.18;4.70;;;16.00;99.90;;;;;;5118853;27;20047;-75
2023/08/24 03:00:49;;;;;;;7.15;5.97;;;16.00;99.90;;;;;;5119142;27;20092;-76
2023/08/24 03:03:16;;;;;;;7.20;5.57;;;16.00;99.90;;;;;;5118677;27;20127;-76
2023/08/24 03:05:55;;;;;;;6.93;5.28;;;16.00;99.90;;;;;;5137036;27;20475;-75
2023/08/24 03:08:20;;;;;;;6.35;4.95;;;16.00;99.90;;;;;;5136937;27;20043;-75
2023/08/24 03:10:46;;;;;;;4.65;4.25;;;16.00;99.90;;;;;;5136910;27;20052;-76
2023/08/24 03:13:13;;;;;;;5.82;4.90;;;16.00;99.90;;;;;;5136713;27;20050;-75
2023/08/24 03:15:39;;;;;;;5.13;4.63;;;16.10;99.90;;;;;;5136392;27;20531;-75
2023/08/24 03:18:05;;;;;;;4.80;4.30;;;16.10;99.90;;;;;;5136895;27;20047;-75
2023/08/24 03:20:31;;;;;;;5.22;4.72;;;16.00;99.90;;;;;;5136440;27;20041;-75
2023/08/24 03:22:57;;;;;;;5.88;5.28;;;16.10;99.90;;;;;;5136603;27;20516;-75
2023/08/24 03:25:23;;;;;;;5.75;5.25;;;16.10;99.90;;;;;;5136617;27;20057;-75
2023/08/24 03:27:49;;;;;;;6.78;4.97;;;16.10;99.90;;;;;;5136464;27;20051;-75
2023/08/24 03:30:14;;;;;;;7.68;4.80;;;16.20;99.90;;;;;;5136767;27;20047;-76
2023/08/24 03:32:41;;;;;;;7.00;5.38;;;16.10;99.90;;;;;;5137052;27;20047;-75
2023/08/24 03:35:07;;;;;;;5.90;4.72;;;16.00;99.90;;;;;;5136804;27;20086;-75
2023/08/24 03:37:33;;;;;;;4.78;4.32;;;16.00;99.90;;;;;;5136409;27;20138;-75
2023/08/24 03:39:59;;;;;;;4.68;4.28;;;16.00;99.90;;;;;;5136794;27;20078;-75
2023/08/24 03:42:25;;;;;;;5.28;4.10;;;15.90;99.90;;;;;;5136336;27;20047;-75
2023/08/24 03:44:50;;;;;;;4.97;4.28;;;15.90;99.90;;;;;;5136785;27;20047;-75
2023/08/24 03:47:16;;;;;;;4.53;4.13;;;15.80;99.90;;;;;;5118086;27;20486;-75
2023/08/24 03:49:45;;;;;;;6.80;5.43;;;15.80;99.90;;;;;;5136069;27;20057;-75
2023/08/24 03:52:10;;;;;;;5.13;4.57;;;15.80;99.90;;;;;;5117915;27;20051;-75
2023/08/24 03:54:36;;;;;;;6.82;5.32;;;15.70;99.90;;;;;;5135882;27;20051;-75
2023/08/24 03:57:02;;;;;;;6.00;4.65;;;15.70;99.90;;;;;;5135930;27;20089;-75
2023/08/24 03:59:28;;;;;;;6.35;5.63;;;15.70;99.90;;;;;;5135727;27;20047;-75
2023/08/24 04:01:54;;;;;;;5.53;5.03;;;15.70;99.90;;;;;;5136406;27;20451;-75
2023/08/24 04:04:20;;;;;;;6.20;5.28;;;15.60;99.90;;;;;;5136219;27;20126;-75
2023/08/24 04:06:45;;;;;;;6.40;5.53;;;15.70;99.90;;;;;;5117598;27;20097;-75
2023/08/24 04:09:11;;;;;;;8.73;6.65;;;15.70;99.90;;;;;;5135670;27;20046;-75
2023/08/24 04:11:37;;;;;;;6.90;5.90;;;15.70;99.90;;;;;;5135777;27;20043;-75
2023/08/24 04:14:02;;;;;;;9.27;7.75;;;15.70;99.90;;;;;;5136057;27;20168;-75
2023/08/24 04:16:28;;;;;;;7.15;6.32;;;15.60;99.90;;;;;;5135973;27;20528;-75
2023/08/24 04:18:54;;;;;;;6.43;5.60;;;15.70;99.90;;;;;;5136664;27;20047;-75
2023/08/24 04:21:19;;;;;;;6.15;5.55;;;15.60;99.90;;;;;;5138276;27;20035;-75
2023/08/24 04:23:45;;;;;;;8.35;6.93;;;15.50;99.90;;;;;;5136980;27;20083;-75
2023/08/24 04:26:14;;;;;;;8.10;6.63;;;15.60;99.90;;;;;;5136855;27;20073;-75
2023/08/24 04:28:39;;;;;;;6.00;5.47;;;15.50;99.90;;;;;;5136825;27;20122;-75
2023/08/24 04:31:05;;;;;;;6.22;5.20;;;15.60;99.90;;;;;;5135669;27;20134;-75
2023/08/24 04:33:31;;;;;;;6.05;5.18;;;15.60;99.90;;;;;;5135547;27;20047;-75
2023/08/24 04:35:58;;;;;;;7.40;6.28;;;15.60;99.90;;;;;;5117295;27;20079;-75
2023/08/24 04:38:23;;;;;;;6.93;4.70;;;15.60;99.90;;;;;;5135240;27;20043;-75
2023/08/24 04:40:51;;;;;;;9.43;7.13;;;15.60;99.90;;;;;;5135565;27;20481;-81
2023/08/24 04:43:18;;;;;;;13.32;8.38;;;15.70;99.90;;;;;;5117691;27;20104;-81
2023/08/24 04:45:47;;;;;;;11.15;9.88;;;15.70;99.90;;;;;;5135198;27;20058;-82
2023/08/24 04:48:13;;;;;;;7.57;6.65;;;15.60;99.90;;;;;;5116820;27;20088;-82
2023/08/24 04:50:39;;;;;;;8.52;6.70;;;15.60;99.90;;;;;;5134987;27;20506;-81
2023/08/24 04:53:05;;;;;;;10.13;7.15;;;15.50;99.90;;;;;;5134827;27;20099;-82
2023/08/24 04:55:31;;;;;;;10.60;6.68;;;15.40;99.90;;;;;;5134944;27;20043;-82
2023/08/24 04:57:57;;;;;;;18.08;8.45;;;15.30;99.90;;;;;;5135075;27;20043;-81
2023/08/24 05:00:23;;;;;;;12.23;7.07;;;15.20;99.90;;;;;;5116847;27;20496;-81
2023/08/24 05:02:48;;;;;;;11.23;6.10;;;15.20;99.90;;;;;;5100063;27;20084;-81
2023/08/24 05:05:14;;;;;;;7.28;5.90;;;15.30;99.90;;;;;;5134830;27;20039;-80
2023/08/24 05:07:40;;;;;;;5.30;4.80;;;15.30;99.90;;;;;;5135179;27;20047;-80
2023/08/24 05:10:07;;;;;;;7.80;6.95;;;15.30;99.90;;;;;;5134622;27;20047;-80
2023/08/24 05:12:36;;;;;;;6.38;5.70;;;15.30;99.90;;;;;;5134058;27;20058;-80
2023/08/24 05:15:03;;;;;;;5.90;4.47;;;15.30;99.90;;;;;;5134906;27;20047;-80
2023/08/24 05:17:29;;;;;;;5.93;4.75;;;15.40;99.90;;;;;;5135011;27;20051;-78
2023/08/24 05:19:55;;;;;;;5.18;4.68;;;15.40;99.90;;;;;;5134398;27;20118;-77
2023/08/24 05:22:20;;;;;;;4.90;4.40;;;15.40;99.90;;;;;;5134771;27;20078;-78
2023/08/24 05:24:46;;;;;;;5.47;4.97;;;15.50;99.90;;;;;;5134255;27;20054;-77
2023/08/24 05:27:12;;;;;;;5.53;4.95;;;15.50;99.90;;;;;;5134579;27;20050;-77
2023/08/24 05:29:38;;;;;;;7.00;6.10;;;15.50;99.90;;;;;;5134098;27;20466;-77
2023/08/24 05:32:03;;;;;;;6.63;6.00;;;15.50;99.90;;;;;;5134000;27;20484;-77
2023/08/24 05:34:29;;;;;;;7.78;6.97;;;15.60;99.90;;;;;;5133857;27;20050;-77
2023/08/24 05:36:55;;;;;;;10.00;6.43;;;15.60;99.90;;;;;;5133853;27;20042;-77
2023/08/24 05:39:20;;;;;;;5.22;4.68;;;15.60;99.90;;;;;;5134195;27;20425;-79
2023/08/24 05:41:50;;;;;;;9.32;7.63;;;15.70;99.90;;;;;;5134092;27;20126;-79
2023/08/24 05:44:16;;;;;;;8.35;6.85;;;15.70;99.90;;;;;;5115845;27;20051;-79
2023/08/24 05:46:42;;;;;;;12.73;8.68;;;15.80;99.90;;;;;;5133377;27;20532;-79
2023/08/24 05:49:08;;;;;;;10.85;8.35;;;15.90;99.90;;;;;;5133703;27;20039;-79
2023/08/24 05:51:34;;;;;;;10.27;7.63;;;15.90;99.90;;;;;;5133702;27;20046;-79
2023/08/24 05:54:00;;;;;;;10.90;9.25;;;16.00;99.90;;;;;;5133648;27;20047;-79
2023/08/24 05:56:26;;;;;;;15.38;10.15;;;16.00;99.90;;;;;;5134093;27;20079;-79
2023/08/24 05:58:52;;;;;;;14.65;11.88;;;16.10;99.90;;;;;;5133998;27;20474;-79
2023/08/24 06:01:17;;;;;;;21.63;16.92;;;16.20;99.90;;;;;;5133815;27;20092;-79
2023/08/24 06:03:43;;;;;;;21.40;16.70;;;16.30;99.90;;;;;;5132908;28;20577;-79
2023/08/24 06:06:09;;;;;;;22.52;17.13;;;16.30;99.90;;;;;;5133498;27;20043;-79
2023/08/24 06:08:35;;;;;;;24.88;20.23;;;16.40;99.90;;;;;;5115920;27;20078;-79
2023/08/24 06:11:01;;;;;;;28.20;23.38;;;16.50;99.90;;;;;;5134334;27;20100;-80
2023/08/24 06:13:27;;;;;;;25.02;20.35;;;16.60;99.90;;;;;;5133082;27;20470;-80
2023/08/24 06:15:54;;;;;;;27.27;20.67;;;16.70;99.90;;;;;;5133454;27;20039;-79
2023/08/24 06:18:20;;;;;;;24.58;20.52;;;16.70;99.90;;;;;;5115181;28;20104;-79
2023/08/24 06:20:48;;;;;;;23.48;17.67;;;16.80;99.90;;;;;;5115292;28;20047;-79
2023/08/24 06:23:16;;;;;;;16.92;13.48;;;16.90;99.90;;;;;;5134518;27;20050;-80
2023/08/24 06:25:41;;;;;;;19.60;13.13;;;16.90;99.90;;;;;;5137727;27;20055;-79
2023/08/24 06:28:08;;;;;;;11.90;10.23;;;17.00;99.90;;;;;;5137583;27;20536;-83
2023/08/24 06:30:38;;;;;;;10.07;7.93;;;17.20;99.90;;;;;;5138168;27;20044;-78
2023/08/24 06:33:05;;;;;;;9.77;7.75;;;17.30;99.90;;;;;;5119731;27;20059;-78
2023/08/24 06:35:30;;;;;;;10.52;7.70;;;17.40;99.90;;;;;;5137648;27;20088;-79
2023/08/24 06:37:56;;;;;;;12.88;8.27;;;17.50;99.90;;;;;;5137621;27;20535;-78
2023/08/24 06:40:22;;;;;;;9.23;7.72;;;17.60;99.90;;;;;;5137355;27;20435;-79
2023/08/24 06:42:48;;;;;;;9.88;7.93;;;17.70;99.90;;;;;;5119331;27;20061;-80
2023/08/24 06:45:14;;;;;;;8.57;6.82;;;17.80;99.90;;;;;;5137323;27;20062;-78
2023/08/24 06:47:39;;;;;;;11.15;7.70;;;18.00;99.90;;;;;;5137990;27;20074;-79
2023/08/24 06:50:06;;;;;;;8.80;7.00;;;18.10;99.90;;;;;;5137258;27;20548;-79
2023/08/24 06:52:32;;;;;;;7.85;6.78;;;18.20;99.90;;;;;;5119299;27;20150;-80
2023/08/24 06:54:59;;;;;;;7.38;6.68;;;18.30;99.90;;;;;;5119196;27;20496;-81
2023/08/24 06:57:25;;;;;;;10.25;6.28;;;18.50;99.90;;;;;;5137112;27;20047;-78
2023/08/24 06:59:50;;;;;;;10.70;6.63;;;18.70;99.90;;;;;;5137393;27;20449;-78
2023/08/24 07:02:17;;;;;;;9.20;5.95;;;18.80;99.90;;;;;;5136655;27;20043;-78
2023/08/24 07:04:43;;;;;;;9.93;6.13;;;19.10;99.90;;;;;;5118573;27;20039;-82
2023/08/24 07:07:09;;;;;;;9.10;6.38;;;19.30;99.90;;;;;;5136770;27;20054;-80
2023/08/24 07:09:35;;;;;;;6.47;5.38;;;19.70;99.90;;;;;;5118342;27;20047;-79
2023/08/24 07:12:02;;;;;;;6.15;5.45;;;20.80;99.90;;;;;;5118671;27;20421;-79
2023/08/24 07:14:27;;;;;;;6.90;5.35;;;22.20;99.90;;;;;;5136968;27;20188;-80
2023/08/24 07:16:53;;;;;;;6.68;4.55;;;23.50;99.90;;;;;;5137092;27;20460;-81
2023/08/24 07:19:19;;;;;;;10.30;5.45;;;24.40;99.90;;;;;;5136580;27;20074;-82
2023/08/24 07:21:45;;;;;;;6.70;5.25;;;25.40;99.90;;;;;;5118687;27;20449;-79
2023/08/24 07:24:11;;;;;;;7.85;5.10;;;25.90;99.90;;;;;;5118489;27;20081;-79
2023/08/24 07:26:36;;;;;;;7.32;5.20;;;26.70;99.90;;;;;;5136230;27;20047;-80
2023/08/24 07:29:02;;;;;;;9.40;5.03;;;27.30;99.90;;;;;;5101449;27;20051;-81
2023/08/24 07:31:28;;;;;;;11.52;5.45;;;27.30;99.90;;;;;;5118196;27;20031;-80
2023/08/24 07:33:53;;;;;;;9.00;5.30;;;27.40;99.90;;;;;;5136319;27;20383;-80
2023/08/24 07:36:19;;;;;;;7.75;4.85;;;;;;;;;;5118553;27;20054;-78
2023/08/24 07:38:49;;;;;;;7.95;5.28;;;28.20;99.90;;;;;;5101305;27;20449;-80
2023/08/24 07:41:17;;;;;;;8.68;5.60;;;28.20;99.90;;;;;;5135963;27;20083;-82
2023/08/24 07:43:43;;;;;;;8.25;5.55;;;28.50;99.90;;;;;;5136021;27;20047;-82
2023/08/24 07:46:09;;;;;;;5.80;4.90;;;29.00;99.60;;;;;;5135769;27;20086;-81
2023/08/24 07:48:35;;;;;;;10.35;5.95;;;29.30;98.80;;;;;;5136245;27;20203;-84
2023/08/24 07:51:01;;;;;;;6.95;4.93;;;29.50;97.70;;;;;;5136593;27;20035;-81
2023/08/24 07:53:26;;;;;;;11.10;5.82;;;29.70;97.50;;;;;;5135973;27;20515;-82
2023/08/24 07:55:54;;;;;;;10.10;5.32;;;29.60;97.20;;;;;;5117966;27;20122;-83
2023/08/24 07:58:20;;;;;;;6.55;5.38;;;30.00;96.90;;;;;;5136057;27;20039;-82
2023/08/24 08:00:50;;;;;;;9.52;5.85;;;30.20;96.50;;;;;;5136091;27;20039;-82
2023/08/24 08:03:17;;;;;;;8.32;4.70;;;30.40;96.00;;;;;;5136411;27;20142;-82
2023/08/24 08:05:42;;;;;;;8.25;4.78;;;30.60;95.70;;;;;;5135830;27;20047;-82
2023/08/24 08:08:08;;;;;;;7.55;5.15;;;30.60;95.40;;;;;;5117699;27;20100;-81
2023/08/24 08:10:34;;;;;;;10.15;6.32;;;30.70;94.80;;;;;;5136597;27;20047;-82
2023/08/24 08:13:00;;;;;;;7.45;4.78;;;30.70;94.50;;;;;;5136971;27;20468;-82
2023/08/24 08:15:25;;;;;;;6.18;4.65;;;30.70;94.40;;;;;;5137045;27;20086;-81
2023/08/24 08:17:51;;;;;;;9.70;5.43;;;30.70;94.30;;;;;;5117972;27;20043;-82
2023/08/24 08:20:17;;;;;;;9.18;5.15;;;30.80;94.10;;;;;;5136222;27;20091;-82
2023/08/24 08:22:42;;;;;;;6.68;4.40;;;31.00;93.80;;;;;;5140737;27;20058;-81
2023/08/24 08:25:08;;;;;;;4.05;3.63;;;31.10;93.70;;;;;;5144774;27;20039;-82
2023/08/24 08:27:34;;;;;;;6.05;4.13;;;31.30;93.50;;;;;;5126647;27;20046;-83
2023/08/24 08:29:59;;;;;;;6.82;3.90;;;31.40;93.20;;;;;;5144826;27;20043;-81
2023/08/24 08:32:27;;;;;;;4.53;4.13;;;31.40;93.00;;;;;;5140909;27;20051;-83
2023/08/24 08:34:56;;;;;;;7.53;4.47;;;31.40;93.10;;;;;;5117551;27;20050;-81
2023/08/24 08:37:22;;;;;;;6.97;4.45;;;31.90;93.00;;;;;;5135431;27;20043;-83
2023/08/24 08:39:48;;;;;;;7.50;4.43;;;31.80;92.70;;;;;;5135482;27;20051;-81
2023/08/24 08:42:14;;;;;;;6.93;4.95;;;31.80;92.50;;;;;;5135254;27;20050;-82
2023/08/24 08:44:42;;;;;;;6.90;4.80;;;31.60;92.30;;;;;;5135820;27;20047;-83
2023/08/24 08:47:10;;;;;;;4.45;4.03;;;31.60;92.40;;;;;;5116285;27;20050;-84
2023/08/24 08:49:38;;;;;;;6.78;4.63;;;31.60;92.50;;;;;;5135478;27;20039;-83
2023/08/24 08:52:05;;;;;;;9.70;4.70;;;31.20;91.90;;;;;;5134968;27;20047;-82
2023/08/24 08:54:32;;;;;;;6.18;5.05;;;30.60;92.30;;;;;;5134852;27;20118;-82
2023/08/24 08:56:59;;;;;;;9.52;4.90;;;30.30;92.60;;;;;;5099783;27;20061;-81
2023/08/24 08:59:29;;;;;;;9.50;5.22;;;30.50;92.80;;;;;;5134744;27;20096;-82
2023/08/24 09:02:00;;;;;;;6.03;4.90;;;30.80;92.70;;;;;;5135056;27;20058;-81
2023/08/24 09:04:31;;;;;;;10.00;5.18;;;31.00;92.50;;;;;;5134921;27;20101;-81
2023/08/24 09:06:57;;;;;;;5.07;4.57;;;31.20;92.30;;;;;;5134802;27;20066;-81
2023/08/24 09:09:23;;;;;;;7.07;5.82;;;30.60;92.40;;;;;;5134068;27;20387;-80
2023/08/24 09:11:49;;;;;;;8.43;5.43;;;30.30;92.60;;;;;;5134557;27;20208;-80
2023/08/24 09:14:15;;;;;;;5.88;5.22;;;29.80;92.80;;;;;;5134636;27;20035;-83
2023/08/24 09:16:41;;;;;;;5.35;4.85;;;29.60;93.00;;;;;;5134999;27;20039;-79
2023/08/24 09:19:09;;;;;;;8.73;5.00;;;29.20;93.20;;;;;;5134348;27;20074;-82
2023/08/24 09:21:41;;;;;;;6.15;4.68;;;29.20;93.60;;;;;;5116495;27;20039;-78
2023/08/24 09:24:07;;;;;;;7.22;5.25;;;29.00;93.70;;;;;;5134407;27;20051;-79
2023/08/24 09:26:36;;;;;;;7.63;5.55;;;28.50;93.80;;;;;;5134064;27;20570;-79
2023/08/24 09:29:13;;;;;;;10.30;5.60;;;28.00;94.20;;;;;;5134056;27;20468;-81
2023/08/24 09:31:39;;;;;;;10.55;5.80;;;27.60;94.70;;;;;;5134199;27;20081;-80
2023/08/24 09:34:08;;;;;;;8.00;5.30;;;27.20;95.00;;;;;;5099081;27;20484;-82
2023/08/24 09:36:35;;;;;;;8.25;6.53;;;26.80;95.30;;;;;;5134056;27;20047;-82
2023/08/24 09:39:04;;;;;;;7.18;5.30;;;26.60;95.70;;;;;;5115908;27;20066;-82
2023/08/24 09:41:41;;;;;;;9.20;5.75;;;26.20;96.10;;;;;;5133901;27;20122;-81
2023/08/24 09:44:08;;;;;;;11.43;5.47;;;25.90;96.50;;;;;;5134075;27;20051;-80
2023/08/24 09:46:37;;;;;;;15.82;6.05;;;25.60;96.60;;;;;;5134548;27;20047;-86
2023/08/24 09:49:05;;;;;;;6.97;5.22;;;25.50;97.00;;;;;;5115744;27;20047;-87
2023/08/24 09:51:33;;;;;;;7.88;5.25;;;25.40;97.10;;;;;;5133601;27;20425;-79
2023/08/24 09:54:01;;;;;;;9.30;5.60;;;25.30;97.40;;;;;;5134041;27;20043;-81
2023/08/24 09:56:29;;;;;;;10.25;5.93;;;25.20;97.70;;;;;;5133952;27;20054;-81
2023/08/24 09:58:58;;;;;;;11.15;5.78;;;25.20;97.90;;;;;;5133607;27;20050;-81
2023/08/24 10:01:24;;;;;;;8.13;5.25;;;25.10;97.90;;;;;;5115563;27;20495;-81
2023/08/24 10:03:52;;;;;;;6.78;5.78;;;25.00;98.10;;;;;;5115840;27;20081;-79
2023/08/24 10:06:21;;;;;;;6.82;5.70;;;25.00;98.20;;;;;;5133626;27;20503;-82
2023/08/24 10:08:54;;;;;;;11.50;5.40;;;24.90;98.30;;;;;;5133701;27;20050;-81
2023/08/24 10:11:28;;;;;;;7.22;5.78;;;24.90;98.80;;;;;;5116184;27;20093;-81
2023/08/24 10:14:06;;;;;;;7.63;5.80;;;24.90;98.70;;;;;;5116179;27;20361;-81
2023/08/24 10:16:35;;;;;;;11.70;6.13;;;24.80;98.60;;;;;;5115514;28;20058;-83
2023/08/24 10:19:02;;;;;;;11.55;6.68;;;24.80;98.90;;;;;;5133472;28;20039;-80
2023/08/24 10:21:29;;;;;;;8.60;6.15;;;24.70;99.00;;;;;;5133533;28;20047;-79
2023/08/24 10:23:56;;;;;;;7.55;6.32;;;24.70;99.10;;;;;;5133424;28;20125;-79
2023/08/24 10:26:23;;;;;;;8.07;6.47;;;24.70;99.10;;;;;;5133392;28;20126;-80
2023/08/24 10:28:51;;;;;;;8.40;6.85;;;24.60;99.20;;;;;;5133135;28;20415;-82
2023/08/24 10:31:17;;;;;;;12.02;7.13;;;24.50;99.40;;;;;;5133598;28;20047;-80
2023/08/24 10:33:45;;;;;;;7.20;5.88;;;24.50;99.60;;;;;;5115893;28;20047;-80
2023/08/24 10:36:13;;;;;;;8.82;6.25;;;24.40;99.80;;;;;;5133130;28;20086;-81
2023/08/24 10:38:42;;;;;;;9.57;6.75;;;24.40;99.90;;;;;;5133153;28;20047;-83
2023/08/24 10:41:08;;;;;;;8.65;6.80;;;24.40;99.90;;;;;;5115146;28;20035;-81
2023/08/24 10:43:37;;;;;;;10.48;6.97;;;24.40;99.90;;;;;;5133033;28;20048;-80
2023/08/24 10:46:04;;;;;;;7.60;6.65;;;24.30;99.90;;;;;;5133146;28;20047;-81
2023/08/24 10:48:41;;;;;;;9.93;6.60;;;24.30;99.90;;;;;;5133021;28;20051;-79
2023/08/24 10:51:23;;;;;;;9.68;6.60;;;24.30;99.90;;;;;;5114945;28;20043;-81
2023/08/24 10:54:03;;;;;;;13.38;6.47;;;24.30;99.90;;;;;;5114672;28;20050;-84
2023/08/24 10:56:39;;;;;;;11.50;6.97;;;24.30;99.90;;;;;;5133265;28;20077;-83
2023/08/24 10:59:18;;;;;;;8.32;6.30;;;24.30;99.90;;;;;;5133099;28;20558;-83
2023/08/24 11:01:55;;;;;;;7.75;6.40;;;24.30;99.90;;;;;;5133046;28;20043;-83
2023/08/24 11:04:21;;;;;;;7.97;6.65;;;24.30;99.90;;;;;;5133007;28;20126;-78
2023/08/24 11:06:55;;;;;;;8.10;7.15;;;24.30;99.90;;;;;;5132978;28;20103;-81
2023/08/24 11:09:21;;;;;;;8.32;7.10;;;24.30;99.90;;;;;;5133319;27;20047;-78
2023/08/24 11:12:14;;;;;;;9.63;7.18;;;24.30;99.90;;;;;;5119037;27;20054;-81
2023/08/24 11:14:51;;;;;;;9.43;5.80;;;24.40;99.90;;;;;;5133074;27;20507;-82
2023/08/24 11:17:21;;;;;;;8.68;6.75;;;24.40;99.90;;;;;;5137178;27;20057;-85
2023/08/24 11:19:51;;;;;;;10.13;6.53;;;24.50;99.90;;;;;;5136790;27;20043;-83
2023/08/24 11:22:18;;;;;;;9.80;6.75;;;24.60;99.90;;;;;;5136206;27;20486;-81
2023/08/24 11:24:47;;;;;;;9.68;6.55;;;24.70;99.90;;;;;;5136958;27;20039;-82
2023/08/24 11:27:13;;;;;;;9.80;7.55;;;24.80;99.90;;;;;;5136268;27;20087;-83
2023/08/24 11:29:38;;;;;;;8.10;6.78;;;24.90;99.90;;;;;;5136724;27;20047;-82
2023/08/24 11:32:05;;;;;;;12.25;7.18;;;25.00;99.90;;;;;;5136899;27;20383;-82
2023/08/24 11:34:31;;;;;;;8.95;6.65;;;25.10;99.90;;;;;;5136404;27;20043;-81
2023/08/24 11:36:57;;;;;;;11.30;7.20;;;25.20;99.90;;;;;;5136402;27;20074;-81
2023/08/24 11:39:25;;;;;;;8.48;7.25;;;25.20;99.90;;;;;;5136170;27;20125;-83
2023/08/24 11:42:03;;;;;;;16.73;7.57;;;25.30;99.90;;;;;;5136325;27;20043;-81
2023/08/24 11:44:30;;;;;;;10.02;7.25;;;25.30;99.90;;;;;;5136343;27;20051;-82
2023/08/24 11:46:59;;;;;;;10.57;8.05;;;25.30;99.90;;;;;;5136541;27;20078;-81
2023/08/24 11:49:25;;;;;;;9.75;7.45;;;25.30;99.90;;;;;;5101222;27;20047;-82
2023/08/24 11:51:51;;;;;;;9.93;7.70;;;25.30;99.90;;;;;;5136649;27;20035;-82
2023/08/24 11:54:19;;;;;;;11.18;7.72;;;25.30;99.90;;;;;;5135997;27;20510;-81
2023/08/24 11:56:46;;;;;;;9.63;8.52;;;25.40;99.90;;;;;;5136611;27;20062;-83
2023/08/24 11:59:16;;;;;;;12.18;7.50;;;25.50;99.90;;;;;;5118537;27;20051;-79
2023/08/24 12:01:43;;;;;;;7.07;6.35;;;25.60;99.90;;;;;;5135833;27;20093;-81
2023/08/24 12:04:09;;;;;;;9.20;7.28;;;25.70;99.90;;;;;;5136564;27;20104;-82
2023/08/24 12:06:35;;;;;;;11.88;7.40;;;25.90;99.90;;;;;;5136225;27;20086;-81
2023/08/24 12:09:02;;;;;;;9.02;7.13;;;26.00;99.90;;;;;;5136194;27;20215;-84
2023/08/24 12:11:28;;;;;;;8.82;7.78;;;26.00;99.90;;;;;;5136456;27;20426;-82
2023/08/24 12:13:55;;;;;;;10.60;7.65;;;26.00;99.90;;;;;;5136159;27;20039;-81
2023/08/24 12:16:23;;;;;;;10.95;7.75;;;26.00;99.90;;;;;;5136052;27;20511;-82
2023/08/24 12:18:56;;;;;;;10.38;6.80;;;26.00;99.90;;;;;;5140193;27;20051;-82
2023/08/24 12:21:22;;;;;;;10.43;7.57;;;26.00;99.90;;;;;;5138907;27;20043;-83
2023/08/24 12:24:05;;;;;;;7.72;7.00;;;26.00;99.90;;;;;;5138534;27;20122;-82
2023/08/24 12:26:32;;;;;;;;;;;25.90;99.90;;;;;;5118530;27;20057;-81
2023/08/24 12:29:05;;;;;;;10.68;6.22;;;25.80;99.90;;;;;;5139650;27;20025;-84
2023/08/24 12:31:31;;;;;;;7.65;6.40;;;25.90;99.90;;;;;;5141716;27;20043;-85
2023/08/24 12:34:03;;;;;;;9.20;6.32;;;25.80;99.90;;;;;;5139308;27;20039;-84
2023/08/24 12:36:29;;;;;;;10.03;7.63;;;25.80;99.90;;;;;;5138251;27;20039;-83
2023/08/24 12:38:55;;;;;;;8.27;7.10;;;25.80;99.90;;;;;;5118765;27;20043;-83
2023/08/24 12:41:20;;;;;;;11.57;7.93;;;25.80;99.90;;;;;;5117345;27;20043;-83
2023/08/24 12:43:46;;;;;;;10.90;8.07;;;25.80;99.90;;;;;;5135974;27;20043;-82
2023/08/24 12:46:12;;;;;;;9.82;7.32;;;25.80;99.90;;;;;;5117001;27;20074;-84